Time;durP1;ratioP1;P1;durP2;ratioP2;P2;SDS_P1;SDS_P2;PMS_P1;PMS_P2;Temp;Humidity;BMP_temperature;BMP_pressure;BME280_temperature;BME280_humidity;BME280_pressure;Samples;Min_cycle;Max_cycle;Signal;HPM_P1;HPM_P2
2022/04/23 00:00:38;;;;;;;22.88;18.85;;;;;;;;;;5034916;28;20049;-91
2022/04/23 00:03:05;;;;;;;24.55;20.60;;;;;;;;;;5037745;28;20054;-92
2022/04/23 00:05:33;;;;;;;26.17;20.83;;;;;;;;;;5032316;28;20132;-92
2022/04/23 00:08:00;;;;;;;24.30;19.83;;;;;;;;;;5032707;28;20073;-92
2022/04/23 00:10:27;;;;;;;24.88;20.42;;;;;;;;;;5032147;28;20136;-92
2022/04/23 00:12:55;;;;;;;24.42;20.20;;;;;;;;;;5032504;28;20073;-92
2022/04/23 00:15:25;;;;;;;24.80;20.17;;;;;;;;;;5032007;28;20060;-93
2022/04/23 00:17:53;;;;;;;25.83;21.05;;;;;;;;;;5032494;28;20516;-92
2022/04/23 00:20:23;;;;;;;24.73;19.85;;;;;;;;;;5032126;28;20136;-92
2022/04/23 00:22:50;;;;;;;27.10;20.67;;;;;;;;;;5032437;28;20041;-92
2022/04/23 00:25:17;;;;;;;25.23;19.45;;;;;;;;;;5032019;28;20512;-91
2022/04/23 00:27:44;;;;;;;26.92;20.83;;;;;;;;;;5032113;28;20064;-92
2022/04/23 00:30:11;;;;;;;22.23;19.27;;;;;;;;;;5032079;28;20569;-92
2022/04/23 00:32:39;;;;;;;25.95;20.95;;;;;;;;;;5031979;28;20140;-91
2022/04/23 00:35:06;;;;;;;21.38;18.50;;;;;;;;;;5032074;28;20076;-93
2022/04/23 00:37:33;;;;;;;22.30;19.30;;;;;;;;;;5031898;28;20061;-92
2022/04/23 00:40:05;;;;;;;21.98;18.80;;;;;;;;;;5031535;28;20144;-92
2022/04/23 00:42:33;;;;;;;20.63;18.17;;;;;;;;;;5031896;28;20128;-91
2022/04/23 00:45:00;;;;;;;22.15;19.08;;;;;;;;;;5031792;28;20087;-92
2022/04/23 00:47:27;;;;;;;24.08;20.55;;;;;;;;;;5031941;28;20073;-91
2022/04/23 00:49:54;;;;;;;23.38;20.15;;;;;;;;;;5032042;28;20053;-91
2022/04/23 00:52:23;;;;;;;22.30;19.10;;;;;;;;;;5032188;28;20463;-91
2022/04/23 00:54:50;;;;;;;24.13;19.92;;;;;;;;;;5031859;28;20179;-91
2022/04/23 00:57:18;;;;;;;25.42;20.40;;;;;;;;;;5031853;28;20084;-91
2022/04/23 00:59:46;;;;;;;22.05;19.40;;;;;;;;;;5031985;28;20052;-91
2022/04/23 01:02:15;;;;;;;25.80;19.10;;;;;;;;;;5035668;28;20542;-91
2022/04/23 01:04:42;;;;;;;23.17;19.80;;;;;;;;;;5035846;28;20398;-91
2022/04/23 01:07:12;;;;;;;23.50;19.83;;;;;;;;;;5036306;28;20128;-92
2022/04/23 01:09:44;;;;;;;23.67;20.17;;;;;;;;;;5035933;28;20050;-91
2022/04/23 01:12:12;;;;;;;23.85;18.50;;;;;;;;;;5035374;28;20049;-91
2022/04/23 01:14:58;;;;;;;21.67;18.77;;;;;;;;;;5035768;28;20473;-90
2022/04/23 01:17:25;;;;;;;22.42;18.45;;;;;;;;;;5040186;28;20073;-90
2022/04/23 01:19:52;;;;;;;22.50;18.35;;;;;;;;;;5036286;28;20399;-91
2022/04/23 01:22:20;;;;;;;21.67;17.92;;;;;;;;;;5035195;28;20056;-92
2022/04/23 01:24:50;;;;;;;19.48;17.45;;;;;;;;;;5036198;28;20064;-91
2022/04/23 01:27:29;;;;;;;18.98;16.70;;;;;;;;;;5035420;28;20144;-91
2022/04/23 01:29:56;;;;;;;18.92;16.52;;;;;;;;;;5035175;28;20140;-91
2022/04/23 01:32:24;;;;;;;17.63;15.77;;;;;;;;;;5035174;28;20358;-91
2022/04/23 01:34:51;;;;;;;21.38;17.35;;;;;;;;;;5035908;28;20072;-91
2022/04/23 01:37:19;;;;;;;20.85;17.58;;;;;;;;;;5035446;28;20124;-91
2022/04/23 01:39:49;;;;;;;20.67;18.02;;;;;;;;;;5034922;28;20088;-91
2022/04/23 01:42:20;;;;;;;22.35;18.88;;;;;;;;;;5034553;28;20111;-91
2022/04/23 01:44:48;;;;;;;20.85;18.20;;;;;;;;;;5034802;28;20421;-91
2022/04/23 01:47:16;;;;;;;20.42;17.90;;;;;;;;;;5035566;28;20562;-91
2022/04/23 01:49:46;;;;;;;19.70;17.05;;;;;;;;;;5037418;28;20466;-91
2022/04/23 01:52:14;;;;;;;17.42;15.63;;;;;;;;;;5033936;28;20445;-92
2022/04/23 01:54:41;;;;;;;18.75;15.85;;;;;;;;;;5035282;28;20467;-91
2022/04/23 01:57:08;;;;;;;17.88;15.95;;;;;;;;;;5034265;28;20117;-91
2022/04/23 01:59:35;;;;;;;21.58;16.20;;;;;;;;;;5035389;28;20049;-90
2022/04/23 02:02:03;;;;;;;18.77;15.95;;;;;;;;;;5034716;28;20107;-91
2022/04/23 02:04:30;;;;;;;20.83;17.02;;;;;;;;;;5034080;28;20052;-91
2022/04/23 02:06:57;;;;;;;19.27;16.30;;;;;;;;;;5035287;28;20049;-91
2022/04/23 02:09:25;;;;;;;19.67;17.55;;;;;;;;;;5034519;28;20088;-91
2022/04/23 02:11:52;;;;;;;23.00;19.85;;;;;;;;;;5033700;28;20085;-91
2022/04/23 02:14:19;;;;;;;23.75;20.42;;;;;;;;;;5033855;28;20085;-91
2022/04/23 02:16:46;;;;;;;22.95;19.15;;;;;;;;;;5033628;28;20140;-91
2022/04/23 02:19:13;;;;;;;25.02;19.65;;;;;;;;;;5035565;28;20084;-91
2022/04/23 02:21:40;;;;;;;21.30;18.85;;;;;;;;;;5033599;28;20514;-91
2022/04/23 02:24:08;;;;;;;22.25;19.42;;;;;;;;;;5033772;28;20077;-90
2022/04/23 02:26:35;;;;;;;22.95;19.98;;;;;;;;;;5034362;28;20128;-90
2022/04/23 02:29:03;;;;;;;23.05;18.35;;;;;;;;;;5033662;28;20077;-91
2022/04/23 02:31:30;;;;;;;25.63;20.83;;;;;;;;;;5034406;28;20042;-91
2022/04/23 02:33:57;;;;;;;22.23;19.48;;;;;;;;;;5039453;28;20057;-91
2022/04/23 02:36:25;;;;;;;24.25;19.83;;;;;;;;;;5034040;28;20045;-90
2022/04/23 02:38:52;;;;;;;21.20;18.02;;;;;;;;;;5033682;28;20506;-90
2022/04/23 02:41:19;;;;;;;20.52;16.88;;;;;;;;;;5033533;28;20049;-90
2022/04/23 02:43:46;;;;;;;22.90;17.67;;;;;;;;;;5034667;28;20224;-90
2022/04/23 02:46:14;;;;;;;18.50;16.60;;;;;;;;;;5033351;28;20114;-91
2022/04/23 02:48:42;;;;;;;18.95;16.65;;;;;;;;;;5033988;28;20107;-91
2022/04/23 02:51:15;;;;;;;17.23;14.55;;;;;;;;;;5034982;28;20103;-90
2022/04/23 02:53:43;;;;;;;19.13;14.98;;;;;;;;;;5033849;28;20096;-90
2022/04/23 02:56:16;;;;;;;20.48;16.65;;;;;;;;;;5033318;28;20061;-91
2022/04/23 02:58:44;;;;;;;18.98;16.67;;;;;;;;;;5034135;28;20049;-91
2022/04/23 03:01:11;;;;;;;19.83;16.88;;;;;;;;;;5034084;28;20096;-91
2022/04/23 03:03:40;;;;;;;18.80;15.90;;;;;;;;;;5032647;28;20045;-91
2022/04/23 03:06:08;;;;;;;18.83;16.67;;;;;;;;;;5033074;28;20092;-90
2022/04/23 03:08:38;;;;;;;22.10;18.63;;;;;;;;;;5032290;28;20127;-90
2022/04/23 03:11:06;;;;;;;23.30;20.17;;;;;;;;;;5032962;28;20050;-90
2022/04/23 03:13:35;;;;;;;21.80;17.48;;;;;;;;;;5033941;28;20099;-90
2022/04/23 03:16:03;;;;;;;22.73;18.17;;;;;;;;;;5032539;28;20413;-91
2022/04/23 03:18:30;;;;;;;24.77;18.63;;;;;;;;;;5032677;28;20144;-90
2022/04/23 03:20:58;;;;;;;29.52;21.27;;;;;;;;;;5032670;28;20511;-91
2022/04/23 03:23:25;;;;;;;26.00;21.40;;;;;;;;;;5032306;28;20063;-91
2022/04/23 03:25:53;;;;;;;26.00;20.98;;;;;;;;;;5032704;28;20556;-90
2022/04/23 03:28:20;;;;;;;29.20;22.50;;;;;;;;;;5033462;28;20084;-90
2022/04/23 03:30:47;;;;;;;30.40;21.85;;;;;;;;;;5032157;28;20060;-89
2022/04/23 03:33:16;;;;;;;32.65;22.85;;;;;;;;;;5033302;28;20403;-90
2022/04/23 03:35:44;;;;;;;30.73;22.77;;;;;;;;;;5032372;28;20073;-89
2022/04/23 03:38:11;;;;;;;29.02;21.50;;;;;;;;;;5032356;28;20149;-90
2022/04/23 03:40:39;;;;;;;31.50;21.70;;;;;;;;;;5033866;28;20051;-90
2022/04/23 03:43:06;;;;;;;34.15;24.00;;;;;;;;;;5032296;28;20107;-91
2022/04/23 03:45:33;;;;;;;34.88;23.70;;;;;;;;;;5032202;28;20053;-91
2022/04/23 03:48:01;;;;;;;33.15;23.13;;;;;;;;;;5034792;28;20107;-90
2022/04/23 03:50:29;;;;;;;36.15;25.52;;;;;;;;;;5034764;28;20504;-90
2022/04/23 03:52:57;;;;;;;40.38;26.17;;;;;;;;;;5032230;28;20486;-90
2022/04/23 03:55:25;;;;;;;41.35;28.60;;;;;;;;;;5033131;28;20071;-91
2022/04/23 03:57:54;;;;;;;51.80;29.00;;;;;;;;;;5033097;28;20053;-90
2022/04/23 04:00:22;;;;;;;42.42;28.88;;;;;;;;;;5031887;28;20053;-91
2022/04/23 04:02:50;;;;;;;44.30;29.13;;;;;;;;;;5032560;28;20172;-90
2022/04/23 04:05:18;;;;;;;42.30;28.88;;;;;;;;;;5031948;28;20075;-91
2022/04/23 04:07:46;;;;;;;54.45;31.40;;;;;;;;;;5033200;28;20046;-90
2022/04/23 04:10:14;;;;;;;44.35;29.52;;;;;;;;;;5031884;28;20081;-90
2022/04/23 04:12:41;;;;;;;53.67;33.58;;;;;;;;;;5032446;28;20132;-91
2022/04/23 04:15:15;;;;;;;61.53;36.72;;;;;;;;;;5032811;28;20144;-91
2022/04/23 04:17:44;;;;;;;62.72;37.33;;;;;;;;;;5032055;28;20095;-91
2022/04/23 04:20:12;;;;;;;81.28;47.63;;;;;;;;;;5032841;28;20053;-91
2022/04/23 04:22:40;;;;;;;65.53;41.10;;;;;;;;;;5032366;28;20482;-91
2022/04/23 04:25:08;;;;;;;75.22;43.08;;;;;;;;;;5032119;28;20053;-90
2022/04/23 04:27:36;;;;;;;63.97;36.60;;;;;;;;;;5032131;28;20073;-90
2022/04/23 04:30:08;;;;;;;69.72;39.17;;;;;;;;;;5031324;28;20520;-91
2022/04/23 04:32:35;;;;;;;71.43;42.42;;;;;;;;;;5029487;28;20052;-91
2022/04/23 04:35:02;;;;;;;79.60;45.35;;;;;;;;;;5032032;28;20045;-90
2022/04/23 04:37:29;;;;;;;85.43;47.88;;;;;;;;;;5036957;28;20135;-90
2022/04/23 04:39:57;;;;;;;82.00;47.60;;;;;;;;;;5036024;28;20049;-91
2022/04/23 04:42:24;;;;;;;86.60;51.47;;;;;;;;;;5036427;28;20092;-91
2022/04/23 04:44:51;;;;;;;81.13;50.42;;;;;;;;;;5035755;28;20049;-91
2022/04/23 04:47:18;;;;;;;75.30;46.58;;;;;;;;;;5037664;28;20132;-91
2022/04/23 04:49:45;;;;;;;60.28;39.63;;;;;;;;;;5035817;28;20473;-91
2022/04/23 04:52:13;;;;;;;62.45;38.38;;;;;;;;;;5035684;28;20136;-91
2022/04/23 04:54:40;;;;;;;62.25;39.75;;;;;;;;;;5036541;28;20128;-90
2022/04/23 04:57:08;;;;;;;64.80;38.92;;;;;;;;;;5035675;28;20081;-91
2022/04/23 04:59:35;;;;;;;59.45;38.42;;;;;;;;;;5035321;28;20132;-90
2022/04/23 05:02:02;;;;;;;59.30;41.08;;;;;;;;;;5036160;28;20052;-90
2022/04/23 05:04:30;;;;;;;63.58;43.83;;;;;;;;;;5043855;28;20053;-89
2022/04/23 05:06:57;;;;;;;64.68;40.78;;;;;;;;;;5036668;28;20056;-90
2022/04/23 05:09:24;;;;;;;58.25;38.97;;;;;;;;;;5035550;28;20085;-91
2022/04/23 05:11:51;;;;;;;60.67;42.10;;;;;;;;;;5035611;28;20387;-91
2022/04/23 05:14:19;;;;;;;55.33;37.17;;;;;;;;;;5035611;28;20073;-91
2022/04/23 05:16:46;;;;;;;66.93;40.47;;;;;;;;;;5034982;28;20107;-90
2022/04/23 05:19:13;;;;;;;52.40;35.47;;;;;;;;;;5036181;28;20053;-90
2022/04/23 05:21:40;;;;;;;51.88;35.50;;;;;;;;;;5035602;28;20049;-91
2022/04/23 05:24:08;;;;;;;53.20;35.50;;;;;;;;;;5039751;28;20113;-90
2022/04/23 05:26:35;;;;;;;44.55;33.20;;;;;;;;;;5038324;28;20067;-91
2022/04/23 05:29:03;;;;;;;52.83;34.05;;;;;;;;;;5036778;28;20085;-90
2022/04/23 05:31:32;;;;;;;51.03;33.92;;;;;;;;;;5038395;28;20108;-91
2022/04/23 05:34:00;;;;;;;44.30;32.78;;;;;;;;;;5039419;28;20053;-91
2022/04/23 05:36:27;;;;;;;48.33;33.15;;;;;;;;;;5037326;28;20067;-91
2022/04/23 05:38:55;;;;;;;43.38;31.30;;;;;;;;;;5038451;28;20129;-91
2022/04/23 05:41:22;;;;;;;49.08;34.90;;;;;;;;;;5040034;28;20053;-91
2022/04/23 05:43:51;;;;;;;42.15;32.33;;;;;;;;;;5038731;28;20164;-91
2022/04/23 05:46:19;;;;;;;45.17;31.58;;;;;;;;;;5037702;28;20052;-91
2022/04/23 05:48:46;;;;;;;43.70;31.90;;;;;;;;;;5036974;28;20077;-90
2022/04/23 05:51:14;;;;;;;43.35;32.75;;;;;;;;;;5036860;28;20049;-92
2022/04/23 05:53:41;;;;;;;42.80;31.50;;;;;;;;;;5035269;28;20128;-90
2022/04/23 05:56:08;;;;;;;43.80;30.08;;;;;;;;;;5035837;28;20075;-91
2022/04/23 05:58:36;;;;;;;47.60;32.05;;;;;;;;;;5035232;28;20068;-91
2022/04/23 06:01:03;;;;;;;41.40;30.92;;;;;;;;;;5035753;28;20049;-91
2022/04/23 06:03:31;;;;;;;45.63;31.30;;;;;;;;;;5036479;28;20379;-90
2022/04/23 06:05:59;;;;;;;47.22;32.35;;;;;;;;;;5035739;28;20057;-90
2022/04/23 06:08:26;;;;;;;48.17;31.25;;;;;;;;;;5035777;28;20049;-91
2022/04/23 06:10:53;;;;;;;52.83;33.72;;;;;;;;;;5035465;28;20113;-91
2022/04/23 06:13:20;;;;;;;39.67;30.38;;;;;;;;;;5035989;28;20120;-91
2022/04/23 06:15:47;;;;;;;59.83;46.58;;;;;;;;;;5036944;28;20061;-91
2022/04/23 06:18:15;;;;;;;46.88;34.38;;;;;;;;;;5037441;28;20124;-91
2022/04/23 06:20:42;;;;;;;46.92;37.70;;;;;;;;;;5040152;28;20049;-91
2022/04/23 06:23:09;;;;;;;44.47;33.15;;;;;;;;;;5035454;28;20041;-91
2022/04/23 06:25:36;;;;;;;38.35;30.25;;;;;;;;;;5034713;28;20466;-90
2022/04/23 06:28:04;;;;;;;36.90;28.38;;;;;;;;;;5035938;28;20095;-90
2022/04/23 06:30:31;;;;;;;48.78;36.63;;;;;;;;;;5034629;28;20045;-91
2022/04/23 06:32:59;;;;;;;43.42;33.50;;;;;;;;;;5034656;28;20132;-91
2022/04/23 06:35:26;;;;;;;43.85;35.40;;;;;;;;;;5034781;28;20096;-91
2022/04/23 06:37:54;;;;;;;42.22;33.00;;;;;;;;;;5033888;28;20076;-91
2022/04/23 06:40:21;;;;;;;40.60;31.40;;;;;;;;;;5033866;28;20096;-90
2022/04/23 06:42:48;;;;;;;39.05;30.30;;;;;;;;;;5034600;28;20144;-91
2022/04/23 06:45:15;;;;;;;43.53;31.65;;;;;;;;;;5033854;28;20099;-91
2022/04/23 06:47:43;;;;;;;40.47;31.13;;;;;;;;;;5034570;28;20084;-91
2022/04/23 06:50:10;;;;;;;45.38;34.08;;;;;;;;;;5033359;28;20473;-91
2022/04/23 06:52:37;;;;;;;45.35;34.45;;;;;;;;;;5034430;28;20052;-91
2022/04/23 06:55:05;;;;;;;43.83;32.70;;;;;;;;;;5034108;28;20054;-90
2022/04/23 06:57:32;;;;;;;41.08;32.25;;;;;;;;;;5033957;28;20053;-90
2022/04/23 07:00:01;;;;;;;39.67;32.35;;;;;;;;;;5033952;28;20045;-91
2022/04/23 07:02:28;;;;;;;43.20;33.40;;;;;;;;;;5034740;28;20059;-90
2022/04/23 07:04:55;;;;;;;40.33;31.33;;;;;;;;;;5033939;28;20057;-91
2022/04/23 07:07:23;;;;;;;40.60;31.35;;;;;;;;;;5033554;28;20144;-90
2022/04/23 07:09:50;;;;;;;40.67;31.90;;;;;;;;;;5034020;28;20132;-91
2022/04/23 07:12:17;;;;;;;38.90;30.75;;;;;;;;;;5033218;28;20556;-91
2022/04/23 07:14:44;;;;;;;38.15;30.52;;;;;;;;;;5032304;28;20049;-91
2022/04/23 07:17:13;;;;;;;39.28;30.33;;;;;;;;;;5032055;28;20477;-90
2022/04/23 07:19:40;;;;;;;41.28;31.77;;;;;;;;;;5033733;28;20049;-91
2022/04/23 07:22:09;;;;;;;41.70;32.35;;;;;;;;;;5032805;28;20057;-90
2022/04/23 07:24:37;;;;;;;39.50;31.40;;;;;;;;;;5032929;28;20121;-91
2022/04/23 07:27:05;;;;;;;39.88;30.48;;;;;;;;;;5033082;28;20560;-90
2022/04/23 07:29:32;;;;;;;41.55;33.00;;;;;;;;;;5033050;28;20049;-90
2022/04/23 07:32:02;;;;;;;37.00;29.98;;;;;;;;;;5033382;28;20121;-90
2022/04/23 07:37:29;;;;;;;38.83;31.48;;;;;;;;;;5035065;28;20084;-90
2022/04/23 07:39:57;;;;;;;38.88;31.08;;;;;;;;;;5032575;28;20501;-90
2022/04/23 07:42:25;;;;;;;36.25;29.70;;;;;;;;;;5032557;28;20500;-90
2022/04/23 07:44:52;;;;;;;35.75;28.02;;;;;;;;;;5032463;28;20083;-90
2022/04/23 07:47:20;;;;;;;34.60;27.88;;;;;;;;;;5032285;28;20394;-90
2022/04/23 07:49:47;;;;;;;33.25;26.98;;;;;;;;;;5032350;28;20048;-90
2022/04/23 07:52:14;;;;;;;33.15;26.35;;;;;;;;;;5032703;28;20057;-88
2022/04/23 07:54:43;;;;;;;33.55;26.80;;;;;;;;;;5032253;28;20053;-88
2022/04/23 07:57:11;;;;;;;28.50;25.13;;;;;;;;;;5033344;28;20433;-88
2022/04/23 07:59:40;;;;;;;32.20;25.33;;;;;;;;;;5032434;28;20144;-88
2022/04/23 08:02:08;;;;;;;26.83;23.88;;;;;;;;;;5032240;28;20051;-89
2022/04/23 08:04:35;;;;;;;26.15;22.17;;;;;;;;;;5030836;28;20050;-90
2022/04/23 08:07:03;;;;;;;23.92;20.42;;;;;;;;;;5030910;28;20135;-89
2022/04/23 08:09:31;;;;;;;23.80;20.20;;;;;;;;;;5031874;28;20077;-88
2022/04/23 08:11:58;;;;;;;21.75;19.40;;;;;;;;;;5031709;28;20084;-89
2022/04/23 08:14:26;;;;;;;21.40;18.58;;;;;;;;;;5033108;28;20045;-89
2022/04/23 08:16:53;;;;;;;24.55;19.13;;;;;;;;;;5031827;28;20050;-91
2022/04/23 08:19:20;;;;;;;21.55;17.90;;;;;;;;;;5031895;28;20136;-90
2022/04/23 08:21:47;;;;;;;22.27;18.15;;;;;;;;;;5033268;28;20057;-88
2022/04/23 08:24:15;;;;;;;21.48;17.77;;;;;;;;;;5033252;28;20057;-89
2022/04/23 08:26:42;;;;;;;24.30;19.15;;;;;;;;;;5031996;28;20088;-88
2022/04/23 08:31:55;;;;;;;28.02;17.73;;;;;;;;;;5033090;28;20076;-88
2022/04/23 08:34:22;;;;;;;18.38;15.60;;;;;;;;;;5032112;28;20132;-89
2022/04/23 08:36:50;;;;;;;18.08;15.75;;;;;;;;;;5032948;28;20103;-88
2022/04/23 08:39:17;;;;;;;20.33;15.18;;;;;;;;;;5033569;28;20053;-89
2022/04/23 08:41:45;;;;;;;17.75;15.85;;;;;;;;;;5033320;28;20080;-90
2022/04/23 08:44:13;;;;;;;21.40;16.00;;;;;;;;;;5033332;28;20041;-91
2022/04/23 08:46:41;;;;;;;16.95;15.15;;;;;;;;;;5033218;28;20059;-89
2022/04/23 08:49:13;;;;;;;16.02;14.30;;;;;;;;;;5043192;28;20135;-89
2022/04/23 08:51:43;;;;;;;15.77;13.95;;;;;;;;;;5039668;28;20100;-89
2022/04/23 08:54:11;;;;;;;14.45;12.27;;;;;;;;;;5033200;28;20049;-88
2022/04/23 08:56:39;;;;;;;13.40;12.10;;;;;;;;;;5032687;28;20520;-90
2022/04/23 08:59:06;;;;;;;14.60;13.20;;;;;;;;;;5031947;28;20516;-90
2022/04/23 09:01:34;;;;;;;12.77;11.55;;;;;;;;;;5033108;28;20103;-90
2022/04/23 09:04:02;;;;;;;13.05;11.68;;;;;;;;;;5033983;28;20091;-89
2022/04/23 09:06:36;;;;;;;13.70;12.07;;;;;;;;;;5032902;28;20490;-88
2022/04/23 09:09:07;;;;;;;14.90;13.40;;;;;;;;;;5032043;28;20160;-89
2022/04/23 09:11:35;;;;;;;13.85;12.45;;;;;;;;;;5031854;28;20054;-90
2022/04/23 09:14:06;;;;;;;13.93;12.63;;;;;;;;;;5031159;28;20077;-91
2022/04/23 09:25:06;;;;;;;12.30;11.10;;;;;;;;;;5038005;28;20132;-91
2022/04/23 09:27:34;;;;;;;12.13;11.02;;;;;;;;;;5036759;28;20091;-95
2022/04/23 09:30:02;;;;;;;14.82;11.35;;;;;;;;;;5036033;28;20095;-89
2022/04/23 09:32:30;;;;;;;12.27;10.98;;;;;;;;;;5037338;28;20124;-92
2022/04/23 09:35:04;;;;;;;11.75;10.55;;;;;;;;;;5037438;28;20132;-92
2022/04/23 09:38:11;;;;;;;12.75;11.27;;;;;;;;;;5035439;28;20580;-90
2022/04/23 09:40:19;;;;;;;13.18;11.88;;;;;;;;;;5036120;28;20152;-92
2022/04/23 09:42:57;;;;;;;12.75;11.55;;;;;;;;;;5035126;28;20548;-89
2022/04/23 09:45:26;;;;;;;12.48;11.05;;;;;;;;;;5035562;28;20069;-90
2022/04/23 09:47:54;;;;;;;15.32;11.82;;;;;;;;;;5035242;28;20080;-91
2022/04/23 09:50:21;;;;;;;13.35;12.05;;;;;;;;;;5037733;28;20055;-92
2022/04/23 09:52:53;;;;;;;13.70;12.30;;;;;;;;;;5035600;28;20144;-89
2022/04/23 09:55:24;;;;;;;13.77;12.40;;;;;;;;;;5036418;28;20050;-89
2022/04/23 09:57:52;;;;;;;12.98;11.65;;;;;;;;;;5035269;28;20053;-93
2022/04/23 10:00:19;;;;;;;12.93;11.68;;;;;;;;;;5036172;28;20076;-93
2022/04/23 10:02:48;;;;;;;13.30;12.00;;;;;;;;;;5034949;28;20046;-90
2022/04/23 10:05:17;;;;;;;12.70;11.27;;;;;;;;;;5036849;28;20073;-90
2022/04/23 10:07:47;;;;;;;12.02;10.88;;;;;;;;;;5037074;28;20137;-94
2022/04/23 10:10:16;;;;;;;13.10;11.30;;;;;;;;;;5035336;28;20382;-92
2022/04/23 10:12:45;;;;;;;12.27;11.07;;;;;;;;;;5034937;28;20096;-91
2022/04/23 10:15:12;;;;;;;12.45;11.18;;;;;;;;;;5035492;28;20121;-92
2022/04/23 10:17:40;;;;;;;11.82;10.73;;;;;;;;;;5035948;28;20136;-90
2022/04/23 10:20:11;;;;;;;11.43;10.30;;;;;;;;;;5035016;28;20530;-91
2022/04/23 10:23:04;;;;;;;13.77;12.32;;;;;;;;;;5034334;28;20555;-88
2022/04/23 10:25:43;;;;;;;11.52;10.52;;;;;;;;;;5030980;28;20084;-88
2022/04/23 10:28:10;;;;;;;11.88;10.68;;;;;;;;;;5034153;28;20059;-89
2022/04/23 10:30:37;;;;;;;10.75;9.75;;;;;;;;;;5035138;28;20045;-90
2022/04/23 10:33:25;;;;;;;11.63;10.52;;;;;;;;;;5034369;28;20409;-88
2022/04/23 10:36:02;;;;;;;10.23;9.32;;;;;;;;;;5033774;28;20061;-89
2022/04/23 10:38:29;;;;;;;10.90;9.90;;;;;;;;;;5034256;28;20137;-90
2022/04/23 10:40:56;;;;;;;9.43;8.52;;;;;;;;;;5033449;28;20049;-89
2022/04/23 10:43:24;;;;;;;10.05;8.85;;;;;;;;;;5034011;28;20077;-90
2022/04/23 10:45:52;;;;;;;12.75;8.88;;;;;;;;;;5034170;28;20045;-89
2022/04/23 10:48:25;;;;;;;10.65;9.63;;;;;;;;;;5035325;28;20053;-90
2022/04/23 10:51:06;;;;;;;9.95;8.70;;;;;;;;;;5034304;28;20552;-91
2022/04/23 10:53:42;;;;;;;9.10;8.30;;;;;;;;;;5035373;28;20081;-92
2022/04/23 10:56:10;;;;;;;9.70;8.23;;;;;;;;;;5034824;28;20052;-91
2022/04/23 10:58:38;;;;;;;10.63;9.00;;;;;;;;;;5034183;28;20077;-88
2022/04/23 11:01:21;;;;;;;8.02;7.28;;;;;;;;;;5033048;28;20136;-89
2022/04/23 11:03:55;;;;;;;9.20;7.68;;;;;;;;;;5033997;28;20061;-93
2022/04/23 11:12:22;;;;;;;7.95;7.13;;;;;;;;;;5034405;28;20406;-89
2022/04/23 11:14:53;;;;;;;7.90;7.20;;;;;;;;;;5033206;28;20489;-91
2022/04/23 11:17:44;;;;;;;9.82;8.23;;;;;;;;;;5033131;28;20045;-87
2022/04/23 11:20:11;;;;;;;9.05;7.43;;;;;;;;;;5035780;28;20056;-89
2022/04/23 11:22:39;;;;;;;8.68;7.90;;;;;;;;;;5038369;28;20053;-89
2022/04/23 11:25:07;;;;;;;8.18;7.47;;;;;;;;;;5032709;28;20128;-92
2022/04/23 11:27:37;;;;;;;9.25;8.40;;;;;;;;;;5032758;28;20049;-92
2022/04/23 11:30:05;;;;;;;9.18;8.27;;;;;;;;;;5033999;28;20087;-90
2022/04/23 11:32:34;;;;;;;9.65;8.70;;;;;;;;;;5034183;28;20080;-89
2022/04/23 11:35:05;;;;;;;10.18;9.18;;;;;;;;;;5032690;28;20084;-94
2022/04/23 11:37:33;;;;;;;8.73;7.93;;;;;;;;;;5033274;28;20068;-91
2022/04/23 11:40:23;;;;;;;10.82;8.50;;;;;;;;;;5033816;28;20486;-94
2022/04/23 11:42:51;;;;;;;9.60;8.45;;;;;;;;;;5032437;28;20088;-94
2022/04/23 11:45:19;;;;;;;9.07;8.25;;;;;;;;;;5031919;28;20077;-91
2022/04/23 11:47:46;;;;;;;10.88;9.82;;;;;;;;;;5033674;28;20049;-89
2022/04/23 11:50:14;;;;;;;9.07;8.27;;;;;;;;;;5032585;28;20405;-91
2022/04/23 11:52:45;;;;;;;8.13;7.43;;;;;;;;;;5033892;28;20081;-89
2022/04/23 11:55:22;;;;;;;9.27;8.32;;;;;;;;;;5033007;28;20056;-89
2022/04/23 11:57:59;;;;;;;8.43;7.72;;;;;;;;;;5032911;28;20139;-89
2022/04/23 12:00:27;;;;;;;72.70;42.20;;;;;;;;;;5033281;28;20106;-93
2022/04/23 12:02:54;;;;;;;30.25;20.02;;;;;;;;;;5032131;28;20115;-91
2022/04/23 12:05:32;;;;;;;9.63;8.65;;;;;;;;;;5032040;28;20061;-88
2022/04/23 12:08:00;;;;;;;13.82;12.15;;;;;;;;;;5032264;28;20077;-89
2022/04/23 12:10:28;;;;;;;17.38;14.95;;;;;;;;;;5032576;28;20136;-89
2022/04/23 12:13:00;;;;;;;14.68;11.48;;;;;;;;;;5032832;28;20060;-89
2022/04/23 12:15:27;;;;;;;14.10;12.30;;;;;;;;;;5033788;28;20123;-94
2022/04/23 12:17:58;;;;;;;7.47;6.88;;;;;;;;;;5032250;28;20054;-92
2022/04/23 12:20:26;;;;;;;11.40;10.10;;;;;;;;;;5032333;28;20068;-91
2022/04/23 12:22:56;;;;;;;13.43;8.18;;;;;;;;;;5032070;28;20140;-91
2022/04/23 12:25:25;;;;;;;7.72;7.03;;;;;;;;;;5031845;28;20081;-89
2022/04/23 12:27:52;;;;;;;7.60;7.00;;;;;;;;;;5032173;28;20053;-88
2022/04/23 12:41:41;;;;;;;7.22;5.47;;;;;;;;;;5033210;28;20045;-88
2022/04/23 12:44:17;;;;;;;5.80;4.70;;;;;;;;;;5032650;28;20081;-93
2022/04/23 12:46:54;;;;;;;5.55;5.05;;;;;;;;;;5032857;28;20144;-88
2022/04/23 12:49:22;;;;;;;5.35;4.95;;;;;;;;;;5032756;28;20136;-87
2022/04/23 12:51:53;;;;;;;6.97;4.70;;;;;;;;;;5031772;28;20141;-89
2022/04/23 12:54:24;;;;;;;5.28;4.78;;;;;;;;;;5032096;28;20136;-95
2022/04/23 12:56:51;;;;;;;5.13;4.72;;;;;;;;;;5033411;28;20041;-89
2022/04/23 12:59:18;;;;;;;6.45;4.70;;;;;;;;;;5036254;28;20140;-88
2022/04/23 13:01:45;;;;;;;6.63;4.97;;;;;;;;;;5036313;28;20092;-92
2022/04/23 13:04:14;;;;;;;5.75;5.25;;;;;;;;;;5036735;28;20049;-89
2022/04/23 13:09:27;;;;;;;5.47;4.97;;;;;;;;;;5036813;28;20336;-89
2022/04/23 13:11:57;;;;;;;5.20;4.55;;;;;;;;;;5035069;28;20107;-88
2022/04/23 13:14:24;;;;;;;4.75;4.35;;;;;;;;;;5034888;28;20135;-86
2022/04/23 13:16:51;;;;;;;5.10;4.70;;;;;;;;;;5036288;28;20141;-91
2022/04/23 13:19:22;;;;;;;5.00;4.60;;;;;;;;;;5034762;28;20088;-88
2022/04/23 13:21:49;;;;;;;4.60;4.30;;;;;;;;;;5036027;28;20128;-87
2022/04/23 13:24:17;;;;;;;4.90;4.22;;;;;;;;;;5034606;28;20522;-88
2022/04/23 13:26:44;;;;;;;4.00;3.67;;;;;;;;;;5035725;28;20041;-86
2022/04/23 13:29:11;;;;;;;3.80;3.60;;;;;;;;;;5035760;28;20061;-88
2022/04/23 13:31:41;;;;;;;3.40;3.20;;;;;;;;;;5034868;28;20124;-93
2022/04/23 13:34:08;;;;;;;4.75;3.13;;;;;;;;;;5035830;28;20045;-92
2022/04/23 13:36:35;;;;;;;4.47;2.80;;;;;;;;;;5034593;28;20148;-89
2022/04/23 13:39:03;;;;;;;3.08;2.83;;;;;;;;;;5035770;28;20081;-90
2022/04/23 13:41:30;;;;;;;2.50;2.38;;;;;;;;;;5035242;28;20049;-89
2022/04/23 13:44:01;;;;;;;2.53;2.42;;;;;;;;;;5034529;28;20088;-86
2022/04/23 13:46:28;;;;;;;2.88;2.40;;;;;;;;;;5034620;28;20100;-86
2022/04/23 13:48:56;;;;;;;3.80;2.63;;;;;;;;;;5034427;28;20053;-88
2022/04/23 13:51:23;;;;;;;3.20;2.30;;;;;;;;;;5037542;28;20055;-86
2022/04/23 13:53:51;;;;;;;2.83;2.58;;;;;;;;;;5039555;28;20057;-87
2022/04/23 13:56:18;;;;;;;4.10;2.00;;;;;;;;;;5035460;28;20069;-88
2022/04/23 13:58:45;;;;;;;2.53;2.30;;;;;;;;;;5035433;28;20522;-87
2022/04/23 14:01:13;;;;;;;2.20;2.10;;;;;;;;;;5035310;28;20045;-87
2022/04/23 14:11:57;;;;;;;2.00;1.90;;;;;;;;;;5038211;28;20053;-87
2022/04/23 14:14:25;;;;;;;2.35;2.22;;;;;;;;;;5033773;28;20470;-90
2022/04/23 14:16:52;;;;;;;2.00;1.90;;;;;;;;;;5034062;28;20151;-86
2022/04/23 14:19:19;;;;;;;3.53;2.10;;;;;;;;;;5033849;28;20105;-86
2022/04/23 14:21:46;;;;;;;2.42;2.22;;;;;;;;;;5033920;28;20136;-86
2022/04/23 14:24:13;;;;;;;2.80;2.60;;;;;;;;;;5034162;28;20516;-87
2022/04/23 14:26:41;;;;;;;2.58;2.38;;;;;;;;;;5033502;28;20494;-87
2022/04/23 14:29:08;;;;;;;2.90;2.10;;;;;;;;;;5033481;28;20089;-88
2022/04/23 14:31:35;;;;;;;3.05;2.10;;;;;;;;;;5033260;28;20049;-85
2022/04/23 14:34:02;;;;;;;2.92;2.03;;;;;;;;;;5032772;28;20167;-84
2022/04/23 14:36:30;;;;;;;2.72;1.92;;;;;;;;;;5033332;28;20049;-89
2022/04/23 14:38:57;;;;;;;1.88;1.77;;;;;;;;;;5033264;28;20053;-87
2022/04/23 14:41:24;;;;;;;2.60;2.40;;;;;;;;;;5034282;28;20136;-85
2022/04/23 14:43:52;;;;;;;3.28;2.60;;;;;;;;;;5033127;28;20133;-88
2022/04/23 14:46:19;;;;;;;2.97;2.70;;;;;;;;;;5033255;28;20188;-86
2022/04/23 14:48:46;;;;;;;2.88;2.67;;;;;;;;;;5033295;28;20049;-87
2022/04/23 14:53:59;;;;;;;2.80;2.60;;;;;;;;;;5033848;28;20414;-87
2022/04/23 14:56:28;;;;;;;2.80;2.47;;;;;;;;;;5033110;28;20486;-87
2022/04/23 14:58:56;;;;;;;2.85;2.58;;;;;;;;;;5033223;28;20107;-88
2022/04/23 15:01:23;;;;;;;2.33;2.22;;;;;;;;;;5033952;28;20425;-88
2022/04/23 15:03:50;;;;;;;2.85;2.60;;;;;;;;;;5033956;28;20493;-88
2022/04/23 15:06:19;;;;;;;2.38;2.17;;;;;;;;;;5033183;28;20101;-88
2022/04/23 15:08:46;;;;;;;2.10;2.00;;;;;;;;;;5038579;28;20045;-88
2022/04/23 15:11:14;;;;;;;2.33;2.22;;;;;;;;;;5033116;28;20041;-88
2022/04/23 15:13:41;;;;;;;5.32;2.38;;;;;;;;;;5033195;28;20055;-88
2022/04/23 15:16:08;;;;;;;2.28;2.08;;;;;;;;;;5032684;28;20517;-89